Time;durP1;ratioP1;P1;durP2;ratioP2;P2;SDS_P1;SDS_P2;PMS_P1;PMS_P2;Temp;Humidity;BMP_temperature;BMP_pressure;BME280_temperature;BME280_humidity;BME280_pressure;Samples;Min_cycle;Max_cycle;Signal;HPM_P1;HPM_P2
2022/01/02 00:00:45;;;;;;;;;;;11.20;1.00;;;;;;5056856;28;20360;-77
2022/01/02 00:03:13;;;;;;;;;;;11.20;1.00;;;;;;5056096;28;19944;-78
2022/01/02 00:05:40;;;;;;;;;;;11.20;1.00;;;;;;5056328;28;19913;-77
2022/01/02 00:08:07;;;;;;;;;;;11.10;1.00;;;;;;5060736;28;19920;-76
2022/01/02 00:10:34;;;;;;;;;;;11.10;1.00;;;;;;5059405;28;20312;-77
2022/01/02 00:13:00;;;;;;;;;;;11.10;1.00;;;;;;5059982;28;20046;-77
2022/01/02 00:15:26;;;;;;;;;;;11.10;1.00;;;;;;5058401;28;19978;-78
2022/01/02 00:17:52;;;;;;;;;;;11.10;23.50;;;;;;5035655;28;19952;-77
2022/01/02 00:20:31;;;;;;;;;;;11.10;51.10;;;;;;5057106;28;19962;-78
2022/01/02 00:22:58;;;;;;;;;;;11.10;97.30;;;;;;5054639;28;20380;-78
2022/01/02 00:25:31;;;;;;;;;;;11.10;99.90;;;;;;5034442;28;20011;-77
2022/01/02 00:27:57;;;;;;;;;;;11.10;99.90;;;;;;5052733;28;20007;-78
2022/01/02 00:30:23;;;;;;;;;;;11.10;99.90;;;;;;5044270;28;19997;-77
2022/01/02 00:32:49;;;;;;;;;;;11.00;99.90;;;;;;5056825;28;20433;-76
2022/01/02 00:35:14;;;;;;;;;;;11.00;99.90;;;;;;5043476;28;19997;-78
2022/01/02 00:37:40;;;;;;;;;;;11.00;1.00;;;;;;5058689;28;19931;-77
2022/01/02 00:40:06;;;;;;;;;;;11.10;99.90;;;;;;5060975;28;19916;-78
2022/01/02 00:42:35;;;;;;;;;;;11.30;1.00;;;;;;5059358;28;20276;-77
2022/01/02 00:45:07;;;;;;;;;;;11.60;1.00;;;;;;5056148;28;19999;-76
2022/01/02 00:47:36;;;;;;;;;;;11.80;1.00;;;;;;5047184;28;19917;-77
2022/01/02 00:50:14;;;;;;;;;;;12.00;99.90;;;;;;5052982;28;19917;-77
2022/01/02 00:52:44;;;;;;;;;;;12.20;1.00;;;;;;5050087;28;19913;-78
2022/01/02 00:55:11;;;;;;;;;;;12.30;99.90;;;;;;5060181;28;20007;-77
2022/01/02 00:57:38;;;;;;;;;;;12.40;99.90;;;;;;5060823;28;20296;-78
2022/01/02 01:00:11;;;;;;;;;;;12.50;99.90;;;;;;5040171;28;19971;-78
2022/01/02 01:02:40;;;;;;;;;;;12.50;99.90;;;;;;5055382;28;19912;-78
2022/01/02 01:05:06;;;;;;;;;;;12.60;25.80;;;;;;5060492;28;19912;-78
2022/01/02 01:07:32;;;;;;;;;;;12.60;1.00;;;;;;5058976;28;19919;-77
2022/01/02 01:09:59;;;;;;;;;;;12.60;1.00;;;;;;5037888;28;19913;-76
2022/01/02 01:12:25;;;;;;;;;;;12.70;1.00;;;;;;5064762;28;19966;-77
2022/01/02 01:14:51;;;;;;;;;;;12.70;1.00;;;;;;5059854;28;19982;-77
2022/01/02 01:17:16;;;;;;;;;;;12.70;1.00;;;;;;5047990;28;19924;-77
2022/01/02 01:19:43;;;;;;;;;;;12.80;1.00;;;;;;5060776;28;19917;-77
2022/01/02 01:22:08;;;;;;;;;;;12.80;1.00;;;;;;5047705;28;19913;-77
2022/01/02 01:24:35;;;;;;;;;;;12.80;1.00;;;;;;5063278;28;19958;-76
2022/01/02 01:27:03;;;;;;;;;;;12.90;1.00;;;;;;5064061;28;19917;-77
2022/01/02 01:29:34;;;;;;;;;;;12.90;1.00;;;;;;5064343;28;19916;-77
2022/01/02 01:32:00;;;;;;;;;;;12.90;1.00;;;;;;5068529;28;20356;-78
2022/01/02 01:34:25;;;;;;;;;;;13.00;1.00;;;;;;5058239;28;20364;-78
2022/01/02 01:36:51;;;;;;;;;;;13.00;1.00;;;;;;5064918;28;19923;-77
2022/01/02 01:39:16;;;;;;;;;;;13.00;1.00;;;;;;5062076;28;20421;-76
2022/01/02 01:41:42;;;;;;;;;;;13.00;1.00;;;;;;5067513;28;20285;-77
2022/01/02 01:46:39;;;;;;;;;;;13.10;1.00;;;;;;5058869;28;19919;-77
2022/01/02 01:49:14;;;;;;;;;;;13.10;1.00;;;;;;5049176;28;19916;-77
2022/01/02 01:51:40;;;;;;;;;;;13.10;1.00;;;;;;5059719;28;20383;-78
2022/01/02 01:54:05;;;;;;;;;;;13.10;1.00;;;;;;5037655;28;19909;-77
2022/01/02 01:56:31;;;;;;;;;;;13.20;1.00;;;;;;5040244;28;19923;-78
2022/01/02 01:58:56;;;;;;;;;;;13.20;1.00;;;;;;5057495;28;19971;-78
2022/01/02 02:01:22;;;;;;;;;;;13.20;1.00;;;;;;5064534;28;19912;-76
2022/01/02 02:03:48;;;;;;;;;;;13.20;1.00;;;;;;5049553;28;19927;-78
2022/01/02 02:06:13;;;;;;;;;;;13.20;1.00;;;;;;5061219;28;19916;-78
2022/01/02 02:08:39;;;;;;;;;;;13.20;1.00;;;;;;5041893;28;21379;-77
2022/01/02 02:11:04;;;;;;;;;;;13.20;1.00;;;;;;5059109;28;19917;-76
2022/01/02 02:13:30;;;;;;;;;;;13.10;1.00;;;;;;5063537;28;20003;-77
2022/01/02 02:15:57;;;;;;;;;;;13.20;1.00;;;;;;5061708;28;19917;-77
2022/01/02 02:18:22;;;;;;;;;;;13.20;1.00;;;;;;5044369;28;20377;-78
2022/01/02 02:20:48;;;;;;;;;;;13.30;1.00;;;;;;5051818;28;20011;-78
2022/01/02 02:23:14;;;;;;;;;;;13.20;1.00;;;;;;5053432;28;20427;-78
2022/01/02 02:25:39;;;;;;;;;;;13.20;1.00;;;;;;5062995;28;19951;-77
2022/01/02 02:28:15;;;;;;;;;;;13.30;1.00;;;;;;5064167;28;19963;-78
2022/01/02 02:30:43;;;;;;;;;;;13.20;1.00;;;;;;5068262;28;19912;-78
2022/01/02 02:33:09;;;;;;;;;;;13.20;1.00;;;;;;5061595;28;19995;-77
2022/01/02 02:35:35;;;;;;;;;;;13.10;1.00;;;;;;5039076;28;19917;-77
2022/01/02 02:38:01;;;;;;;;;;;13.20;1.00;;;;;;5046751;28;19920;-77
2022/01/02 02:40:28;;;;;;;;;;;13.20;1.00;;;;;;5041118;28;19912;-77
2022/01/02 02:50:57;;;;;;;;;;;13.20;1.00;;;;;;5059530;28;19956;-78
2022/01/02 02:53:23;;;;;;;;;;;13.10;1.00;;;;;;5056930;28;19960;-76
2022/01/02 02:55:54;;;;;;;;;;;13.10;1.00;;;;;;5050477;28;19975;-77
2022/01/02 03:01:00;;;;;;;;;;;13.10;1.00;;;;;;5060317;28;19999;-77
2022/01/02 03:03:26;;;;;;;;;;;13.10;1.00;;;;;;5060210;28;19920;-77
2022/01/02 03:05:52;;;;;;;;;;;13.10;1.00;;;;;;5060843;28;19913;-78
2022/01/02 03:08:18;;;;;;;;;;;13.10;1.00;;;;;;5055840;28;19913;-78
2022/01/02 03:10:43;;;;;;;;;;;13.10;1.00;;;;;;5054147;28;19936;-79
2022/01/02 03:13:09;;;;;;;;;;;13.10;1.00;;;;;;5053808;28;19923;-79
2022/01/02 03:15:34;;;;;;;;;;;13.10;1.00;;;;;;5056995;28;20390;-78
2022/01/02 03:18:00;;;;;;;;;;;13.20;1.00;;;;;;5060974;28;19913;-78
2022/01/02 03:20:25;;;;;;;;;;;13.10;1.00;;;;;;5054072;28;20429;-79
2022/01/02 03:22:51;;;;;;;;;;;13.20;1.00;;;;;;5060851;28;19908;-78
2022/01/02 03:25:17;;;;;;;;;;;13.20;1.00;;;;;;5063718;28;19912;-78
2022/01/02 03:27:43;;;;;;;;;;;13.20;1.00;;;;;;5059267;28;19936;-77
2022/01/02 03:30:09;;;;;;;;;;;13.20;1.00;;;;;;5063991;28;19952;-78
2022/01/02 03:32:35;;;;;;;;;;;13.10;1.00;;;;;;5063356;28;20369;-77
2022/01/02 03:35:01;;;;;;;;;;;13.10;1.00;;;;;;5060539;28;19999;-78
2022/01/02 03:37:28;;;;;;;;;;;13.10;1.00;;;;;;5057212;28;19999;-78
2022/01/02 03:39:54;;;;;;;;;;;13.10;1.00;;;;;;5056421;28;19920;-77
2022/01/02 03:42:20;;;;;;;;;;;13.10;1.00;;;;;;5046529;28;19913;-77
2022/01/02 03:44:45;;;;;;;;;;;13.00;1.00;;;;;;5057083;28;19919;-78
2022/01/02 03:47:11;;;;;;;;;;;13.00;1.00;;;;;;5063200;28;19913;-79
2022/01/02 03:49:36;;;;;;;;;;;13.00;1.00;;;;;;5063621;28;19956;-77
2022/01/02 03:52:02;;;;;;;;;;;13.00;1.00;;;;;;5043471;28;19912;-79
2022/01/02 03:54:28;;;;;;;;;;;13.00;1.00;;;;;;5063170;28;20431;-79
2022/01/02 03:56:54;;;;;;;;;;;13.00;1.00;;;;;;5061814;28;20335;-79
2022/01/02 03:59:19;;;;;;;;;;;13.00;1.00;;;;;;5063091;28;20012;-77
2022/01/02 04:01:45;;;;;;;;;;;13.00;1.00;;;;;;5055516;28;19960;-78
2022/01/02 04:04:10;;;;;;;;;;;13.00;1.00;;;;;;5054106;28;20297;-79
2022/01/02 04:06:36;;;;;;;;;;;13.00;1.00;;;;;;5057482;28;19919;-79
2022/01/02 04:09:02;;;;;;;;;;;13.00;1.00;;;;;;5063999;28;19959;-78
2022/01/02 04:11:27;;;;;;;;;;;13.00;1.00;;;;;;5056278;28;19913;-77
2022/01/02 04:13:52;;;;;;;;;;;13.00;1.00;;;;;;5036255;28;19917;-80
2022/01/02 04:16:18;;;;;;;;;;;13.00;1.00;;;;;;5043588;28;19931;-78
2022/01/02 04:18:43;;;;;;;;;;;13.00;1.00;;;;;;5055547;28;19913;-79
2022/01/02 04:21:09;;;;;;;;;;;13.00;4.30;;;;;;5047575;28;20278;-77
2022/01/02 04:23:35;;;;;;;;;;;13.00;10.20;;;;;;5058700;28;19913;-78
2022/01/02 04:26:01;;;;;;;;;;;13.10;24.20;;;;;;5056654;28;19988;-78
2022/01/02 04:28:26;;;;;;;;;;;13.00;88.70;;;;;;5033548;28;19952;-79
2022/01/02 04:30:52;;;;;;;;;;;13.10;99.90;;;;;;5051395;28;20086;-78
2022/01/02 04:33:17;;;;;;;;;;;13.10;99.90;;;;;;5049414;28;20434;-79
2022/01/02 04:35:43;;;;;;;;;;;13.00;99.90;;;;;;5062419;28;20399;-78
2022/01/02 04:38:08;;;;;;;;;;;13.00;99.90;;;;;;5053746;28;20011;-79
2022/01/02 04:40:34;;;;;;;;;;;12.90;99.90;;;;;;5060150;28;19912;-78
2022/01/02 04:42:59;;;;;;;;;;;12.80;99.90;;;;;;5056063;28;20000;-78
2022/01/02 04:45:24;;;;;;;;;;;12.90;99.90;;;;;;5048890;28;20003;-79
2022/01/02 04:47:50;;;;;;;;;;;12.80;99.90;;;;;;5058003;28;19913;-77
2022/01/02 04:50:15;;;;;;;;;;;12.80;99.90;;;;;;5065950;28;19916;-79
2022/01/02 04:52:41;;;;;;;;;;;12.80;99.90;;;;;;5065933;28;20371;-78
2022/01/02 04:55:06;;;;;;;;;;;12.70;1.00;;;;;;5063335;28;20438;-76
2022/01/02 04:57:32;;;;;;;;;;;12.70;1.00;;;;;;5062498;28;20532;-77
2022/01/02 04:59:57;;;;;;;;;;;12.70;1.00;;;;;;5063832;28;19913;-78
2022/01/02 05:02:23;;;;;;;;;;;12.60;99.90;;;;;;5053759;28;20400;-76
2022/01/02 05:04:48;;;;;;;;;;;12.50;1.00;;;;;;5057930;28;19913;-77
2022/01/02 05:07:14;;;;;;;;;;;12.60;84.60;;;;;;5046433;28;19917;-77
2022/01/02 05:09:40;;;;;;;;;;;12.60;2.50;;;;;;5056026;28;20026;-77
2022/01/02 05:12:05;;;;;;;;;;;12.60;99.90;;;;;;5061697;28;19920;-76
2022/01/02 05:14:31;;;;;;;;;;;12.50;99.90;;;;;;5061312;28;19913;-77
2022/01/02 05:16:56;;;;;;;;;;;12.50;1.00;;;;;;5062634;28;19970;-76
2022/01/02 05:19:22;;;;;;;;;;;12.50;99.90;;;;;;5065036;28;20119;-76
2022/01/02 05:21:47;;;;;;;;;;;12.50;99.90;;;;;;5062406;28;19927;-76
2022/01/02 05:24:13;;;;;;;;;;;12.40;99.90;;;;;;5068662;28;19916;-76
2022/01/02 05:26:38;;;;;;;;;;;12.50;1.00;;;;;;5058606;28;19976;-76
2022/01/02 05:29:04;;;;;;;;;;;12.50;99.90;;;;;;5064475;28;19917;-77
2022/01/02 05:31:29;;;;;;;;;;;12.50;1.00;;;;;;5047366;28;19919;-78
2022/01/02 05:33:57;;;;;;;;;;;12.60;1.00;;;;;;5066896;28;19995;-76
2022/01/02 05:36:23;;;;;;;;;;;12.50;1.00;;;;;;5062084;28;19921;-77
2022/01/02 05:38:48;;;;;;;;;;;12.40;1.00;;;;;;5059896;28;20282;-77
2022/01/02 05:41:14;;;;;;;;;;;12.40;1.00;;;;;;5062225;28;20074;-77
2022/01/02 05:43:39;;;;;;;;;;;12.50;1.00;;;;;;5040929;28;19913;-76
2022/01/02 05:46:05;;;;;;;;;;;12.40;99.90;;;;;;5065038;28;19912;-77
2022/01/02 05:48:31;;;;;;;;;;;12.40;99.90;;;;;;5042551;28;19917;-77
2022/01/02 05:50:59;;;;;;;;;;;12.40;99.90;;;;;;5059691;28;20395;-77
2022/01/02 05:53:24;;;;;;;;;;;12.30;99.90;;;;;;5057662;28;19912;-77
2022/01/02 05:55:50;;;;;;;;;;;12.20;99.90;;;;;;5061183;28;20343;-77
2022/01/02 05:58:15;;;;;;;;;;;12.30;99.90;;;;;;5045703;28;20419;-77
2022/01/02 06:00:41;;;;;;;;;;;12.30;99.90;;;;;;5051028;28;19935;-77
2022/01/02 06:03:06;;;;;;;;;;;12.30;99.90;;;;;;5055575;28;19963;-77
2022/01/02 06:05:32;;;;;;;;;;;12.30;99.90;;;;;;5061796;28;19925;-78
2022/01/02 06:07:57;;;;;;;;;;;12.30;99.90;;;;;;5044819;28;19912;-78
2022/01/02 06:10:23;;;;;;;;;;;12.20;99.90;;;;;;5065538;28;20296;-77
2022/01/02 06:12:48;;;;;;;;;;;12.10;99.90;;;;;;5050834;28;19919;-76
2022/01/02 06:15:14;;;;;;;;;;;12.10;99.90;;;;;;5055628;28;21595;-76
2022/01/02 06:17:39;;;;;;;;;;;12.00;99.90;;;;;;5052577;28;19955;-77
2022/01/02 06:20:05;;;;;;;;;;;12.00;99.90;;;;;;5042689;28;19912;-77
2022/01/02 06:22:30;;;;;;;;;;;12.00;99.90;;;;;;5058331;28;20007;-76
2022/01/02 06:24:55;;;;;;;;;;;11.90;99.90;;;;;;5061155;28;20405;-76
2022/01/02 06:27:22;;;;;;;;;;;11.90;99.90;;;;;;5063506;28;19920;-78
2022/01/02 06:29:47;;;;;;;;;;;11.80;99.90;;;;;;5046591;28;20388;-77
2022/01/02 06:32:13;;;;;;;;;;;11.80;99.90;;;;;;5060876;28;19913;-76
2022/01/02 06:34:38;;;;;;;;;;;11.70;99.90;;;;;;5050421;28;19913;-77
2022/01/02 06:37:04;;;;;;;;;;;11.70;99.90;;;;;;5050516;28;20327;-78
2022/01/02 06:39:29;;;;;;;;;;;11.70;99.90;;;;;;5037890;28;19948;-79
2022/01/02 06:41:55;;;;;;;;;;;11.80;99.90;;;;;;5043390;28;19908;-78
2022/01/02 06:44:20;;;;;;;;;;;11.70;99.90;;;;;;5058958;28;19939;-78
2022/01/02 06:46:45;;;;;;;;;;;11.70;99.90;;;;;;5061675;28;20031;-77
2022/01/02 06:49:11;;;;;;;;;;;11.70;99.90;;;;;;5059050;28;19916;-76
2022/01/02 06:51:36;;;;;;;;;;;11.60;99.90;;;;;;5048730;28;20011;-77
2022/01/02 06:54:02;;;;;;;;;;;11.60;1.00;;;;;;5060307;28;20376;-76
2022/01/02 06:56:27;;;;;;;;;;;11.60;1.00;;;;;;5061460;28;19923;-77
2022/01/02 06:58:53;;;;;;;;;;;11.60;1.00;;;;;;5063607;28;19908;-78
2022/01/02 07:01:18;;;;;;;;;;;11.90;1.00;;;;;;5032100;28;19927;-77
2022/01/02 07:03:44;;;;;;;;;;;11.60;1.00;;;;;;5065937;28;20399;-78
2022/01/02 07:06:09;;;;;;;;;;;11.60;1.00;;;;;;5056638;28;20438;-76
2022/01/02 07:08:35;;;;;;;;;;;10.80;1.00;;;;;;5045611;28;19935;-78
2022/01/02 07:11:00;;;;;;;;;;;11.50;1.00;;;;;;5040169;28;19909;-77
2022/01/02 07:13:26;;;;;;;;;;;11.60;1.00;;;;;;5058785;28;20017;-76
2022/01/02 07:15:51;;;;;;;;;;;11.60;1.00;;;;;;5062425;28;20400;-78
2022/01/02 07:18:17;;;;;;;;;;;11.70;99.90;;;;;;5053663;28;19920;-77
2022/01/02 07:20:42;;;;;;;;;;;11.80;99.90;;;;;;5062153;28;19948;-77
2022/01/02 07:23:08;;;;;;;;;;;11.80;99.90;;;;;;5060105;28;20000;-77
2022/01/02 07:25:33;;;;;;;;;;;11.90;99.90;;;;;;5060298;28;19964;-77
2022/01/02 07:27:59;;;;;;;;;;;11.90;99.90;;;;;;5061029;28;19932;-77
2022/01/02 07:30:24;;;;;;;;;;;11.90;99.90;;;;;;5064384;28;19908;-77
2022/01/02 07:32:50;;;;;;;;;;;12.00;1.00;;;;;;5061634;28;19919;-77
2022/01/02 07:35:15;;;;;;;;;;;11.90;1.00;;;;;;5041285;28;19912;-76
2022/01/02 07:37:42;;;;;;;;;;;11.90;1.00;;;;;;5035281;28;20419;-77
2022/01/02 07:40:08;;;;;;;;;;;11.90;1.00;;;;;;5047815;28;19943;-78
2022/01/02 07:42:34;;;;;;;;;;;12.00;99.90;;;;;;5059616;28;19919;-76
2022/01/02 07:44:59;;;;;;;;;;;12.00;99.90;;;;;;5056652;28;20000;-77
2022/01/02 07:47:25;;;;;;;;;;;12.10;1.00;;;;;;5059569;28;19958;-77
2022/01/02 07:49:50;;;;;;;;;;;12.10;99.90;;;;;;5054686;28;19925;-78
2022/01/02 07:52:16;;;;;;;;;;;12.20;99.90;;;;;;5059948;28;19917;-77
2022/01/02 07:54:41;;;;;;;;;;;12.20;1.00;;;;;;5062135;28;19912;-78
2022/01/02 07:57:07;;;;;;;;;;;12.20;1.00;;;;;;5042082;28;20380;-78
2022/01/02 07:59:32;;;;;;;;;;;12.20;1.00;;;;;;5058935;28;19970;-78
2022/01/02 08:01:58;;;;;;;;;;;12.30;99.90;;;;;;5057949;28;19913;-77
2022/01/02 08:04:23;;;;;;;;;;;12.20;99.90;;;;;;5055360;28;19923;-77
2022/01/02 08:06:49;;;;;;;;;;;12.20;99.90;;;;;;5053554;28;20302;-77
2022/01/02 08:09:14;;;;;;;;;;;12.20;99.90;;;;;;5040011;28;19917;-79
2022/01/02 08:11:40;;;;;;;;;;;12.10;99.90;;;;;;5051131;28;20381;-78
2022/01/02 08:14:06;;;;;;;;;;;12.10;99.90;;;;;;5040438;28;20019;-77
2022/01/02 08:16:32;;;;;;;;;;;12.00;99.90;;;;;;5053047;28;19921;-77
2022/01/02 08:18:57;;;;;;;;;;;12.00;99.90;;;;;;5051986;28;19955;-77
2022/01/02 08:21:23;;;;;;;;;;;12.10;99.90;;;;;;5065100;28;19948;-78
2022/01/02 08:23:48;;;;;;;;;;;12.00;74.30;;;;;;5048758;28;19920;-78
2022/01/02 08:26:14;;;;;;;;;;;12.00;74.80;;;;;;5034476;28;19913;-77
2022/01/02 08:28:39;;;;;;;;;;;12.10;99.90;;;;;;5060792;28;19919;-77
2022/01/02 08:31:05;;;;;;;;;;;12.10;99.90;;;;;;5053637;28;20369;-78
2022/01/02 08:33:31;;;;;;;;;;;12.10;99.90;;;;;;5037162;28;19920;-77
2022/01/02 08:35:56;;;;;;;;;;;12.10;20.10;;;;;;5037729;28;19916;-78
2022/01/02 08:38:23;;;;;;;;;;;12.20;1.00;;;;;;5037030;28;19940;-79
2022/01/02 08:40:48;;;;;;;;;;;12.10;99.90;;;;;;5045938;28;19917;-78
2022/01/02 08:43:14;;;;;;;;;;;12.10;99.90;;;;;;5055491;28;19999;-77
2022/01/02 08:45:39;;;;;;;;;;;12.30;1.00;;;;;;5060499;28;19958;-78
2022/01/02 08:48:05;;;;;;;;;;;12.50;24.30;;;;;;5056150;28;19913;-78
2022/01/02 08:50:30;;;;;;;;;;;12.70;1.00;;;;;;5055254;28;19913;-78
2022/01/02 08:52:56;;;;;;;;;;;12.80;1.00;;;;;;5055136;28;19920;-77
2022/01/02 08:55:22;;;;;;;;;;;12.80;1.00;;;;;;5055364;28;20015;-77
2022/01/02 08:57:47;;;;;;;;;;;12.90;1.00;;;;;;5036127;28;19983;-77
2022/01/02 09:00:13;;;;;;;;;;;12.90;1.00;;;;;;5063680;28;20359;-76
2022/01/02 09:02:38;;;;;;;;;;;12.90;1.00;;;;;;5054321;28;19944;-78
2022/01/02 09:05:04;;;;;;;;;;;12.90;99.90;;;;;;5045747;28;19956;-78
2022/01/02 09:07:30;;;;;;;;;;;12.90;99.90;;;;;;5069509;28;19913;-76
2022/01/02 09:09:55;;;;;;;;;;;13.00;99.90;;;;;;5061912;28;19913;-77
2022/01/02 09:12:21;;;;;;;;;;;13.10;99.90;;;;;;5034683;28;19962;-76
2022/01/02 09:14:46;;;;;;;;;;;13.30;99.90;;;;;;5043997;28;19944;-76
2022/01/02 09:17:11;;;;;;;;;;;13.40;1.00;;;;;;5040787;28;20042;-77
2022/01/02 09:19:37;;;;;;;;;;;13.50;1.00;;;;;;5045502;28;20397;-77
2022/01/02 09:22:03;;;;;;;;;;;14.00;1.00;;;;;;5047027;28;20344;-78
2022/01/02 09:24:29;;;;;;;;;;;13.80;1.00;;;;;;5042261;28;19920;-77
2022/01/02 09:26:55;;;;;;;;;;;13.90;1.00;;;;;;5047410;28;19948;-76
2022/01/02 09:29:21;;;;;;;;;;;14.10;1.00;;;;;;5043709;28;20369;-77
2022/01/02 09:31:46;;;;;;;;;;;14.30;1.00;;;;;;5042677;28;19912;-77
2022/01/02 09:34:12;;;;;;;;;;;14.50;1.00;;;;;;5046466;28;19977;-76
2022/01/02 09:36:37;;;;;;;;;;;14.90;1.00;;;;;;5041188;28;19967;-78
2022/01/02 09:39:03;;;;;;;;;;;14.60;1.00;;;;;;5041345;28;19913;-75
2022/01/02 09:41:29;;;;;;;;;;;15.40;1.00;;;;;;5032526;28;20373;-76
2022/01/02 09:43:55;;;;;;;;;;;15.30;1.00;;;;;;5043269;28;19913;-78
2022/01/02 09:46:21;;;;;;;;;;;15.30;1.00;;;;;;5052986;28;19919;-77
2022/01/02 09:48:48;;;;;;;;;;;15.10;1.00;;;;;;5031686;28;19961;-77
2022/01/02 09:51:13;;;;;;;;;;;14.80;1.00;;;;;;5057960;28;19919;-76
2022/01/02 09:53:39;;;;;;;;;;;14.60;1.00;;;;;;5042015;28;19912;-77
2022/01/02 09:56:05;;;;;;;;;;;14.50;1.00;;;;;;5045508;28;20361;-77
2022/01/02 09:58:33;;;;;;;;;;;14.50;1.00;;;;;;5048655;28;19913;-77
2022/01/02 10:00:58;;;;;;;;;;;14.50;1.00;;;;;;5048589;28;20342;-77
2022/01/02 10:03:24;;;;;;;;;;;14.50;1.00;;;;;;5048345;28;19959;-76
2022/01/02 10:05:49;;;;;;;;;;;14.40;1.00;;;;;;5055966;28;19916;-77
2022/01/02 10:08:41;;;;;;;;;;;14.40;1.00;;;;;;5031259;28;20029;-77
2022/01/02 10:11:11;;;;;;;;;;;14.60;1.00;;;;;;5046658;28;20435;-78
2022/01/02 10:13:38;;;;;;;;;;;14.80;1.00;;;;;;5049041;28;19913;-77
2022/01/02 10:16:04;;;;;;;;;;;15.00;1.00;;;;;;5044232;28;19971;-77
2022/01/02 10:18:30;;;;;;;;;;;15.30;1.00;;;;;;5035098;28;20388;-77
2022/01/02 10:20:58;;;;;;;;;;;15.50;1.00;;;;;;5048611;28;19912;-77
2022/01/02 10:23:24;;;;;;;;;;;15.50;1.00;;;;;;5045108;28;19921;-77
2022/01/02 10:25:53;;;;;;;;;;;15.60;1.00;;;;;;5043490;28;19913;-77
2022/01/02 10:28:19;;;;;;;;;;;15.50;1.00;;;;;;5037943;28;20312;-77
2022/01/02 10:30:45;;;;;;;;;;;15.30;1.00;;;;;;5034293;28;19952;-76
2022/01/02 10:33:11;;;;;;;;;;;15.10;1.00;;;;;;5051438;28;19912;-76
2022/01/02 10:35:36;;;;;;;;;;;15.00;1.00;;;;;;5048365;28;19912;-78
2022/01/02 10:38:04;;;;;;;;;;;15.00;1.00;;;;;;5049853;28;19956;-78
2022/01/02 10:40:32;;;;;;;;;;;15.00;1.00;;;;;;5033504;28;19917;-79
2022/01/02 10:42:59;;;;;;;;;;;15.10;1.00;;;;;;5039454;28;19913;-78
2022/01/02 10:45:35;;;;;;;;;;;15.20;1.00;;;;;;5034708;28;19913;-78
2022/01/02 10:48:02;;;;;;;;;;;15.20;1.00;;;;;;5052908;28;20396;-79
2022/01/02 10:50:28;;;;;;;;;;;15.20;1.00;;;;;;5060650;22;20953;-79
2022/01/02 10:52:53;;;;;;;;;;;15.10;1.00;;;;;;5014294;28;19913;-79
2022/01/02 10:55:19;;;;;;;;;;;15.10;1.00;;;;;;5016289;28;19937;-80
2022/01/02 10:57:47;;;;;;;;;;;15.20;1.00;;;;;;5022701;28;20023;-79
2022/01/02 11:00:13;;;;;;;;;;;15.30;1.00;;;;;;5019838;28;20640;-80
2022/01/02 11:02:39;;;;;;;;;;;15.60;1.00;;;;;;5024340;28;19918;-79
2022/01/02 11:05:05;;;;;;;;;;;15.50;1.00;;;;;;5009092;28;19968;-79
2022/01/02 11:07:36;;;;;;;;;;;15.30;1.00;;;;;;5003285;28;19937;-79
2022/01/02 11:10:02;;;;;;;;;;;15.10;1.00;;;;;;5012842;28;19920;-80
2022/01/02 11:12:27;;;;;;;;;;;15.00;1.00;;;;;;4993789;28;20004;-80
2022/01/02 11:14:53;;;;;;;;;;;14.90;1.00;;;;;;5006570;28;20013;-79
2022/01/02 11:17:19;;;;;;;;;;;14.80;1.00;;;;;;5009698;28;19917;-80
2022/01/02 11:19:45;;;;;;;;;;;14.60;1.00;;;;;;5021616;28;19914;-79
2022/01/02 11:22:21;;;;;;;;;;;14.50;1.00;;;;;;5020733;28;19925;-80
2022/01/02 11:24:50;;;;;;;;;;;14.60;1.00;;;;;;5013424;28;20382;-80
2022/01/02 11:27:19;;;;;;;;;;;14.80;1.00;;;;;;5009176;28;20008;-80
2022/01/02 11:29:45;;;;;;;;;;;14.90;1.00;;;;;;5006358;28;19956;-80
2022/01/02 11:32:21;;;;;;;;;;;15.10;1.00;;;;;;5023663;28;19960;-80
2022/01/02 11:34:47;;;;;;;;;;;15.30;1.00;;;;;;5020309;28;20052;-79
2022/01/02 11:37:12;;;;;;;;;;;15.20;1.00;;;;;;5023547;28;19996;-80
2022/01/02 11:39:52;;;;;;;;;;;15.00;1.00;;;;;;5012087;28;19926;-79
2022/01/02 11:42:41;;;;;;;;;;;14.80;1.00;;;;;;5009675;28;19957;-79
2022/01/02 11:45:07;;;;;;;;;;;14.70;1.00;;;;;;5018805;28;20456;-79
2022/01/02 11:47:44;;;;;;;;;;;14.60;1.00;;;;;;5017262;28;19921;-80
2022/01/02 11:50:28;;;;;;;;;;;14.40;1.00;;;;;;5011798;28;19970;-79
2022/01/02 11:53:08;;;;;;;;;;;14.30;1.00;;;;;;5013102;28;19913;-79
2022/01/02 11:55:34;;;;;;;;;;;14.30;1.00;;;;;;5009052;28;19914;-79
2022/01/02 11:58:00;;;;;;;;;;;14.30;1.00;;;;;;5011060;28;19914;-79
2022/01/02 12:00:34;;;;;;;;;;;14.20;1.00;;;;;;5008433;28;19914;-79
2022/01/02 12:02:59;;;;;;;;;;;14.20;1.00;;;;;;5007477;28;20416;-79
2022/01/02 12:05:25;;;;;;;;;;;14.20;1.00;;;;;;5012461;28;19913;-79
2022/01/02 12:07:53;;;;;;;;;;;14.10;1.00;;;;;;5006287;28;19965;-79
2022/01/02 12:10:21;;;;;;;;;;;14.20;1.00;;;;;;5012462;28;19920;-79
2022/01/02 12:12:59;;;;;;;;;;;14.40;1.00;;;;;;5009974;28;19925;-80
2022/01/02 12:15:24;;;;;;;;;;;14.30;1.00;;;;;;5010933;28;19920;-81
2022/01/02 12:18:09;;;;;;;;;;;14.40;1.00;;;;;;5022312;28;19918;-81
2022/01/02 12:20:49;;;;;;;;;;;14.30;1.00;;;;;;5012426;28;19982;-81
2022/01/02 12:23:33;;;;;;;;;;;14.30;1.00;;;;;;5014385;28;19937;-80
2022/01/02 12:26:07;;;;;;;;;;;14.40;1.00;;;;;;5014156;28;20385;-80
2022/01/02 12:28:37;;;;;;;;;;;14.30;1.00;;;;;;5019045;28;19917;-79
2022/01/02 12:31:03;;;;;;;;;;;14.30;1.00;;;;;;5010071;28;19913;-80
2022/01/02 12:33:30;;;;;;;;;;;14.30;1.00;;;;;;5014348;28;19932;-80
2022/01/02 12:35:56;;;;;;;;;;;14.20;1.00;;;;;;5014446;28;19933;-80
2022/01/02 12:38:22;;;;;;;;;;;14.20;1.00;;;;;;5016854;28;19976;-79
2022/01/02 12:40:49;;;;;;;;;;;14.10;1.00;;;;;;4991021;28;19920;-79
2022/01/02 12:43:22;;;;;;;;;;;14.00;1.00;;;;;;5018564;28;19920;-79
2022/01/02 12:45:52;;;;;;;;;;;14.00;1.00;;;;;;5018045;28;19964;-79
2022/01/02 12:48:30;;;;;;;;;;;13.90;1.00;;;;;;5021405;28;19936;-80
2022/01/02 12:51:06;;;;;;;;;;;13.90;1.00;;;;;;5014169;28;20014;-80
2022/01/02 12:53:32;;;;;;;;;;;13.90;1.00;;;;;;5014855;28;20289;-80
2022/01/02 12:55:57;;;;;;;;;;;14.00;1.00;;;;;;5012893;28;19918;-78
2022/01/02 12:58:23;;;;;;;;;;;14.00;1.00;;;;;;5002490;28;19945;-80
2022/01/02 13:00:49;;;;;;;;;;;14.00;1.00;;;;;;5023644;28;19920;-80
2022/01/02 13:03:17;;;;;;;;;;;14.00;1.00;;;;;;4989265;28;19909;-79
2022/01/02 13:05:52;;;;;;;;;;;13.90;1.00;;;;;;5007425;28;19924;-79
2022/01/02 13:08:25;;;;;;;;;;;13.90;1.00;;;;;;5016508;28;19955;-80
2022/01/02 13:10:50;;;;;;;;;;;13.90;1.00;;;;;;5036510;28;19913;-80
2022/01/02 13:13:29;;;;;;;;;;;13.90;1.00;;;;;;5023157;28;20332;-80
2022/01/02 13:15:54;;;;;;;;;;;13.90;1.00;;;;;;5026208;28;20008;-80
2022/01/02 13:18:20;;;;;;;;;;;13.90;1.00;;;;;;5021355;28;19956;-81
2022/01/02 13:20:48;;;;;;;;;;;13.90;1.00;;;;;;5026886;28;19936;-80
2022/01/02 13:23:14;;;;;;;;;;;13.90;1.00;;;;;;5016146;28;20056;-80
2022/01/02 13:25:41;;;;;;;;;;;14.00;1.00;;;;;;5013300;28;19913;-79
2022/01/02 13:28:08;;;;;;;;;;;14.00;1.00;;;;;;5011821;28;19996;-79
2022/01/02 13:30:54;;;;;;;;;;;14.00;1.00;;;;;;5007342;28;19937;-81
2022/01/02 13:33:23;;;;;;;;;;;13.90;1.00;;;;;;5012897;28;19920;-81
2022/01/02 13:35:50;;;;;;;;;;;14.00;1.00;;;;;;5010186;28;19918;-81
2022/01/02 13:38:17;;;;;;;;;;;14.00;1.00;;;;;;5010814;28;20000;-81
2022/01/02 13:40:43;;;;;;;;;;;13.90;1.00;;;;;;5016003;28;19952;-80
2022/01/02 13:43:10;;;;;;;;;;;13.90;1.00;;;;;;5007535;28;19959;-81
2022/01/02 13:45:42;;;;;;;;;;;13.90;1.00;;;;;;5010209;28;19955;-82
2022/01/02 13:48:15;;;;;;;;;;;13.90;1.00;;;;;;4990683;28;20008;-80
2022/01/02 13:50:42;;;;;;;;;;;13.90;1.00;;;;;;5013586;28;19967;-82
2022/01/02 13:53:14;;;;;;;;;;;13.90;1.00;;;;;;5023338;28;19921;-80
2022/01/02 13:55:40;;;;;;;;;;;14.00;1.00;;;;;;5019076;28;19917;-81
2022/01/02 13:58:16;;;;;;;;;;;14.00;1.00;;;;;;5008360;28;19909;-81
2022/01/02 14:00:50;;;;;;;;;;;14.10;1.00;;;;;;5023853;28;19939;-82
2022/01/02 14:03:35;;;;;;;;;;;14.10;1.00;;;;;;5019204;28;19958;-80
2022/01/02 14:06:04;;;;;;;;;;;14.10;1.00;;;;;;5018697;28;19920;-81
2022/01/02 14:08:30;;;;;;;;;;;14.10;1.00;;;;;;5013189;28;19966;-82
2022/01/02 14:11:05;;;;;;;;;;;14.00;1.00;;;;;;5013485;28;19918;-81
2022/01/02 14:13:46;;;;;;;;;;;14.00;1.00;;;;;;5015541;28;20008;-81
2022/01/02 14:16:20;;;;;;;;;;;13.90;1.00;;;;;;5015150;28;20008;-80
2022/01/02 14:18:46;;;;;;;;;;;13.90;1.00;;;;;;5019636;28;19928;-81
2022/01/02 14:21:12;;;;;;;;;;;13.90;1.00;;;;;;5027115;28;20420;-81
2022/01/02 14:23:38;;;;;;;;;;;13.90;1.00;;;;;;5020057;28;19913;-82
2022/01/02 14:26:03;;;;;;;;;;;13.90;1.00;;;;;;5034784;28;19913;-82
2022/01/02 14:28:29;;;;;;;;;;;13.80;1.00;;;;;;5010710;28;19917;-81
2022/01/02 14:30:54;;;;;;;;;;;13.90;1.00;;;;;;5024198;28;20347;-82
2022/01/02 14:33:21;;;;;;;;;;;13.80;1.00;;;;;;5017685;28;19937;-83
2022/01/02 14:35:46;;;;;;;;;;;13.80;1.00;;;;;;5027542;28;20436;-82
2022/01/02 14:38:12;;;;;;;;;;;13.80;1.00;;;;;;5022796;28;19971;-81